sensor_id;sensor_type;location;lat;lon;timestamp;temperature;humidity
51815;DHT22;37874;53.158;6.766;2023-09-07T00:01:00;29.10;56.90
51815;DHT22;37874;53.158;6.766;2023-09-07T00:03:26;29.10;56.90
51815;DHT22;37874;53.158;6.766;2023-09-07T00:05:52;29.10;56.90
51815;DHT22;37874;53.158;6.766;2023-09-07T00:08:17;29.10;57.00
51815;DHT22;37874;53.158;6.766;2023-09-07T00:10:43;29.00;56.90
51815;DHT22;37874;53.158;6.766;2023-09-07T00:13:08;29.10;57.00
51815;DHT22;37874;53.158;6.766;2023-09-07T00:15:38;29.00;56.90
51815;DHT22;37874;53.158;6.766;2023-09-07T00:18:06;29.00;56.90
51815;DHT22;37874;53.158;6.766;2023-09-07T00:20:32;29.00;57.00
51815;DHT22;37874;53.158;6.766;2023-09-07T00:22:58;29.00;56.90
51815;DHT22;37874;53.158;6.766;2023-09-07T00:25:26;29.00;56.90
51815;DHT22;37874;53.158;6.766;2023-09-07T00:27:51;29.00;57.00
51815;DHT22;37874;53.158;6.766;2023-09-07T00:30:17;28.90;57.00
51815;DHT22;37874;53.158;6.766;2023-09-07T00:32:43;29.00;57.10
51815;DHT22;37874;53.158;6.766;2023-09-07T00:35:09;28.90;57.10
51815;DHT22;37874;53.158;6.766;2023-09-07T00:37:34;28.90;57.10
51815;DHT22;37874;53.158;6.766;2023-09-07T00:40:03;28.90;57.40
51815;DHT22;37874;53.158;6.766;2023-09-07T00:42:29;28.80;57.10
51815;DHT22;37874;53.158;6.766;2023-09-07T00:44:55;28.80;57.20
51815;DHT22;37874;53.158;6.766;2023-09-07T00:47:21;28.80;57.20
51815;DHT22;37874;53.158;6.766;2023-09-07T00:49:47;28.90;57.30
51815;DHT22;37874;53.158;6.766;2023-09-07T00:52:12;28.80;57.30
51815;DHT22;37874;53.158;6.766;2023-09-07T00:54:38;28.80;57.30
51815;DHT22;37874;53.158;6.766;2023-09-07T00:57:06;28.80;57.30
51815;DHT22;37874;53.158;6.766;2023-09-07T00:59:33;28.80;57.30
51815;DHT22;37874;53.158;6.766;2023-09-07T01:01:59;28.80;57.40
51815;DHT22;37874;53.158;6.766;2023-09-07T01:04:27;28.70;57.30
51815;DHT22;37874;53.158;6.766;2023-09-07T01:07:03;28.70;57.40
51815;DHT22;37874;53.158;6.766;2023-09-07T01:09:31;28.70;57.40
51815;DHT22;37874;53.158;6.766;2023-09-07T01:11:57;28.70;57.40
51815;DHT22;37874;53.158;6.766;2023-09-07T01:14:23;28.60;57.30
51815;DHT22;37874;53.158;6.766;2023-09-07T01:16:51;28.60;57.40
51815;DHT22;37874;53.158;6.766;2023-09-07T01:19:17;28.60;57.40
51815;DHT22;37874;53.158;6.766;2023-09-07T01:21:43;28.60;57.50
51815;DHT22;37874;53.158;6.766;2023-09-07T01:24:14;28.60;57.50
51815;DHT22;37874;53.158;6.766;2023-09-07T01:26:40;28.60;57.50
51815;DHT22;37874;53.158;6.766;2023-09-07T01:29:08;28.60;57.50
51815;DHT22;37874;53.158;6.766;2023-09-07T01:31:38;28.60;57.50
51815;DHT22;37874;53.158;6.766;2023-09-07T01:34:04;28.50;57.50
51815;DHT22;37874;53.158;6.766;2023-09-07T01:36:30;28.40;57.50
51815;DHT22;37874;53.158;6.766;2023-09-07T01:38:56;28.50;57.60
51815;DHT22;37874;53.158;6.766;2023-09-07T01:41:21;28.50;57.60
51815;DHT22;37874;53.158;6.766;2023-09-07T01:43:47;28.50;57.70
51815;DHT22;37874;53.158;6.766;2023-09-07T01:46:13;28.50;57.70
51815;DHT22;37874;53.158;6.766;2023-09-07T01:48:39;28.50;57.70
51815;DHT22;37874;53.158;6.766;2023-09-07T01:51:04;28.50;57.70
51815;DHT22;37874;53.158;6.766;2023-09-07T01:53:30;28.40;57.70
51815;DHT22;37874;53.158;6.766;2023-09-07T01:55:55;28.40;57.70
51815;DHT22;37874;53.158;6.766;2023-09-07T01:58:22;28.40;57.70
51815;DHT22;37874;53.158;6.766;2023-09-07T02:00:49;28.40;57.70
51815;DHT22;37874;53.158;6.766;2023-09-07T02:03:15;28.40;57.80
51815;DHT22;37874;53.158;6.766;2023-09-07T02:05:41;28.40;57.80
51815;DHT22;37874;53.158;6.766;2023-09-07T02:08:06;28.40;57.80
51815;DHT22;37874;53.158;6.766;2023-09-07T02:10:33;28.40;57.80
51815;DHT22;37874;53.158;6.766;2023-09-07T02:13:00;28.40;57.80
51815;DHT22;37874;53.158;6.766;2023-09-07T02:15:26;28.30;57.70
51815;DHT22;37874;53.158;6.766;2023-09-07T02:17:54;28.30;57.80
51815;DHT22;37874;53.158;6.766;2023-09-07T02:20:20;28.30;57.80
51815;DHT22;37874;53.158;6.766;2023-09-07T02:22:45;28.30;57.80
51815;DHT22;37874;53.158;6.766;2023-09-07T02:25:11;28.30;57.80
51815;DHT22;37874;53.158;6.766;2023-09-07T02:27:37;28.30;57.80
51815;DHT22;37874;53.158;6.766;2023-09-07T02:30:04;28.20;57.80
51815;DHT22;37874;53.158;6.766;2023-09-07T02:32:31;28.20;57.80
51815;DHT22;37874;53.158;6.766;2023-09-07T02:34:57;28.20;57.80
51815;DHT22;37874;53.158;6.766;2023-09-07T02:37:23;28.20;57.80
51815;DHT22;37874;53.158;6.766;2023-09-07T02:39:48;28.20;57.90
51815;DHT22;37874;53.158;6.766;2023-09-07T02:42:17;28.20;57.90
51815;DHT22;37874;53.158;6.766;2023-09-07T02:44:43;28.10;57.80
51815;DHT22;37874;53.158;6.766;2023-09-07T02:47:11;28.20;57.90
51815;DHT22;37874;53.158;6.766;2023-09-07T02:49:36;28.10;57.80
51815;DHT22;37874;53.158;6.766;2023-09-07T02:52:02;28.20;58.00
51815;DHT22;37874;53.158;6.766;2023-09-07T02:54:28;28.10;57.90
51815;DHT22;37874;53.158;6.766;2023-09-07T02:56:54;28.10;57.90
51815;DHT22;37874;53.158;6.766;2023-09-07T02:59:20;28.10;57.90
51815;DHT22;37874;53.158;6.766;2023-09-07T03:01:45;28.10;57.90
51815;DHT22;37874;53.158;6.766;2023-09-07T03:04:11;28.10;57.90
51815;DHT22;37874;53.158;6.766;2023-09-07T03:06:39;28.00;57.90
51815;DHT22;37874;53.158;6.766;2023-09-07T03:09:05;28.10;57.90
51815;DHT22;37874;53.158;6.766;2023-09-07T03:11:34;28.10;57.90
51815;DHT22;37874;53.158;6.766;2023-09-07T03:14:00;28.10;58.00
51815;DHT22;37874;53.158;6.766;2023-09-07T03:16:26;28.00;57.90
51815;DHT22;37874;53.158;6.766;2023-09-07T03:18:51;28.00;58.00
51815;DHT22;37874;53.158;6.766;2023-09-07T03:21:17;28.00;57.90
51815;DHT22;37874;53.158;6.766;2023-09-07T03:23:43;28.00;58.00
51815;DHT22;37874;53.158;6.766;2023-09-07T03:26:11;28.00;58.00
51815;DHT22;37874;53.158;6.766;2023-09-07T03:28:37;28.00;58.00
51815;DHT22;37874;53.158;6.766;2023-09-07T03:31:08;28.00;58.00
51815;DHT22;37874;53.158;6.766;2023-09-07T03:33:42;28.00;58.00
51815;DHT22;37874;53.158;6.766;2023-09-07T03:36:08;28.00;58.00
51815;DHT22;37874;53.158;6.766;2023-09-07T03:38:35;27.90;57.90
51815;DHT22;37874;53.158;6.766;2023-09-07T03:41:00;27.90;57.90
51815;DHT22;37874;53.158;6.766;2023-09-07T03:43:26;27.90;57.90
51815;DHT22;37874;53.158;6.766;2023-09-07T03:45:52;27.90;57.90
51815;DHT22;37874;53.158;6.766;2023-09-07T03:48:17;27.90;57.90
51815;DHT22;37874;53.158;6.766;2023-09-07T03:50:43;27.90;58.00
51815;DHT22;37874;53.158;6.766;2023-09-07T03:53:08;27.90;58.60
51815;DHT22;37874;53.158;6.766;2023-09-07T03:55:41;27.90;58.00
51815;DHT22;37874;53.158;6.766;2023-09-07T03:58:11;27.80;57.90
51815;DHT22;37874;53.158;6.766;2023-09-07T04:00:40;27.80;57.90
51815;DHT22;37874;53.158;6.766;2023-09-07T04:03:07;27.90;58.00
51815;DHT22;37874;53.158;6.766;2023-09-07T04:05:33;27.80;57.90
51815;DHT22;37874;53.158;6.766;2023-09-07T04:07:59;27.80;57.90
51815;DHT22;37874;53.158;6.766;2023-09-07T04:10:26;27.80;58.00
51815;DHT22;37874;53.158;6.766;2023-09-07T04:12:51;27.80;58.00
51815;DHT22;37874;53.158;6.766;2023-09-07T04:15:17;27.80;57.90
51815;DHT22;37874;53.158;6.766;2023-09-07T04:17:43;27.80;58.00
51815;DHT22;37874;53.158;6.766;2023-09-07T04:20:09;27.80;57.90
51815;DHT22;37874;53.158;6.766;2023-09-07T04:22:36;27.80;58.00
51815;DHT22;37874;53.158;6.766;2023-09-07T04:25:04;27.80;57.90
51815;DHT22;37874;53.158;6.766;2023-09-07T04:27:30;27.80;57.90
51815;DHT22;37874;53.158;6.766;2023-09-07T04:29:56;27.80;57.90
51815;DHT22;37874;53.158;6.766;2023-09-07T04:32:22;27.80;57.90
51815;DHT22;37874;53.158;6.766;2023-09-07T04:34:52;27.70;57.90
51815;DHT22;37874;53.158;6.766;2023-09-07T04:37:18;27.70;57.90
51815;DHT22;37874;53.158;6.766;2023-09-07T06:37:56;28.10;56.00
51815;DHT22;37874;53.158;6.766;2023-09-07T06:40:22;28.10;56.00
51815;DHT22;37874;53.158;6.766;2023-09-07T06:42:47;28.10;56.00
51815;DHT22;37874;53.158;6.766;2023-09-07T06:45:13;28.10;55.90
51815;DHT22;37874;53.158;6.766;2023-09-07T08:49:04;28.10;55.40
51815;DHT22;37874;53.158;6.766;2023-09-07T08:51:30;28.10;55.30
51815;DHT22;37874;53.158;6.766;2023-09-07T08:54:05;28.10;55.10
51815;DHT22;37874;53.158;6.766;2023-09-07T08:56:32;28.10;55.10
51815;DHT22;37874;53.158;6.766;2023-09-07T08:58:58;28.00;54.90
51815;DHT22;37874;53.158;6.766;2023-09-07T09:01:24;28.00;54.90
51815;DHT22;37874;53.158;6.766;2023-09-07T09:03:50;28.10;54.90
51815;DHT22;37874;53.158;6.766;2023-09-07T09:06:20;28.10;54.90
51815;DHT22;37874;53.158;6.766;2023-09-07T09:08:56;28.10;54.80
51815;DHT22;37874;53.158;6.766;2023-09-07T09:11:23;28.10;54.90
51815;DHT22;37874;53.158;6.766;2023-09-07T09:13:51;28.10;54.70
51815;DHT22;37874;53.158;6.766;2023-09-07T09:16:18;28.20;54.70
51815;DHT22;37874;53.158;6.766;2023-09-07T09:18:51;28.20;54.70
51815;DHT22;37874;53.158;6.766;2023-09-07T09:21:25;28.10;54.50
51815;DHT22;37874;53.158;6.766;2023-09-07T09:23:52;28.20;54.50
51815;DHT22;37874;53.158;6.766;2023-09-07T09:26:19;28.30;54.50
51815;DHT22;37874;53.158;6.766;2023-09-07T09:28:45;28.30;54.50
51815;DHT22;37874;53.158;6.766;2023-09-07T09:31:11;28.30;54.40
51815;DHT22;37874;53.158;6.766;2023-09-07T09:33:47;28.30;54.40
51815;DHT22;37874;53.158;6.766;2023-09-07T09:36:14;28.30;54.30
51815;DHT22;37874;53.158;6.766;2023-09-07T09:38:39;28.30;54.30
51815;DHT22;37874;53.158;6.766;2023-09-07T09:41:05;28.30;54.30
51815;DHT22;37874;53.158;6.766;2023-09-07T09:43:31;28.30;54.30
51815;DHT22;37874;53.158;6.766;2023-09-07T09:45:57;28.40;54.40
51815;DHT22;37874;53.158;6.766;2023-09-07T09:48:27;28.30;54.30
51815;DHT22;37874;53.158;6.766;2023-09-07T09:50:53;28.30;54.40
51815;DHT22;37874;53.158;6.766;2023-09-07T09:53:19;28.40;54.40
51815;DHT22;37874;53.158;6.766;2023-09-07T09:55:49;28.40;54.50
51815;DHT22;37874;53.158;6.766;2023-09-07T09:58:16;28.30;54.50
51815;DHT22;37874;53.158;6.766;2023-09-07T10:00:47;28.30;54.50
51815;DHT22;37874;53.158;6.766;2023-09-07T10:03:14;28.20;54.50
51815;DHT22;37874;53.158;6.766;2023-09-07T10:05:48;28.30;54.60
51815;DHT22;37874;53.158;6.766;2023-09-07T10:08:14;28.30;54.60
51815;DHT22;37874;53.158;6.766;2023-09-07T10:10:42;28.30;54.60
51815;DHT22;37874;53.158;6.766;2023-09-07T10:13:08;28.30;54.60
51815;DHT22;37874;53.158;6.766;2023-09-07T10:15:34;28.30;54.60
51815;DHT22;37874;53.158;6.766;2023-09-07T10:18:13;28.30;54.60
51815;DHT22;37874;53.158;6.766;2023-09-07T10:20:59;28.30;54.70
51815;DHT22;37874;53.158;6.766;2023-09-07T10:23:38;28.30;54.70
51815;DHT22;37874;53.158;6.766;2023-09-07T10:26:05;28.30;54.60
51815;DHT22;37874;53.158;6.766;2023-09-07T10:28:35;28.30;55.20
51815;DHT22;37874;53.158;6.766;2023-09-07T10:33:39;28.40;54.70
51815;DHT22;37874;53.158;6.766;2023-09-07T10:36:05;28.40;54.70
51815;DHT22;37874;53.158;6.766;2023-09-07T10:38:35;28.40;54.70
51815;DHT22;37874;53.158;6.766;2023-09-07T10:41:02;28.40;54.70
51815;DHT22;37874;53.158;6.766;2023-09-07T10:43:33;28.40;54.80
51815;DHT22;37874;53.158;6.766;2023-09-07T10:46:00;28.40;54.80
51815;DHT22;37874;53.158;6.766;2023-09-07T10:48:28;28.40;54.70
51815;DHT22;37874;53.158;6.766;2023-09-07T10:50:55;28.50;54.80
51815;DHT22;37874;53.158;6.766;2023-09-07T10:53:31;28.50;54.70
51815;DHT22;37874;53.158;6.766;2023-09-07T10:56:02;28.60;54.80
51815;DHT22;37874;53.158;6.766;2023-09-07T10:58:33;28.50;54.70
51815;DHT22;37874;53.158;6.766;2023-09-07T11:01:00;28.50;54.70
51815;DHT22;37874;53.158;6.766;2023-09-07T11:03:27;28.50;54.70
51815;DHT22;37874;53.158;6.766;2023-09-07T11:06:16;28.50;54.70
51815;DHT22;37874;53.158;6.766;2023-09-07T11:08:45;28.60;54.80
51815;DHT22;37874;53.158;6.766;2023-09-07T11:11:12;28.60;54.80
51815;DHT22;37874;53.158;6.766;2023-09-07T11:13:38;28.60;54.80
51815;DHT22;37874;53.158;6.766;2023-09-07T11:16:07;28.60;54.80
51815;DHT22;37874;53.158;6.766;2023-09-07T11:18:33;28.60;54.90
51815;DHT22;37874;53.158;6.766;2023-09-07T11:21:01;28.60;54.90
51815;DHT22;37874;53.158;6.766;2023-09-07T11:23:29;28.70;54.90
51815;DHT22;37874;53.158;6.766;2023-09-07T11:25:57;28.70;54.80
51815;DHT22;37874;53.158;6.766;2023-09-07T11:28:23;28.70;54.80
51815;DHT22;37874;53.158;6.766;2023-09-07T11:30:52;28.70;54.70
51815;DHT22;37874;53.158;6.766;2023-09-07T11:33:18;28.80;54.70
51815;DHT22;37874;53.158;6.766;2023-09-07T11:35:44;28.80;55.20
51815;DHT22;37874;53.158;6.766;2023-09-07T11:38:13;28.80;54.60
51815;DHT22;37874;53.158;6.766;2023-09-07T11:40:39;28.90;54.50
51815;DHT22;37874;53.158;6.766;2023-09-07T11:43:08;28.90;54.20
51815;DHT22;37874;53.158;6.766;2023-09-07T11:45:35;29.10;54.00
51815;DHT22;37874;53.158;6.766;2023-09-07T11:48:00;29.20;53.50
51815;DHT22;37874;53.158;6.766;2023-09-07T11:50:26;29.50;53.10
51815;DHT22;37874;53.158;6.766;2023-09-07T11:52:55;29.70;52.60
51815;DHT22;37874;53.158;6.766;2023-09-07T11:55:21;29.90;52.10
51815;DHT22;37874;53.158;6.766;2023-09-07T11:57:47;30.10;51.80
51815;DHT22;37874;53.158;6.766;2023-09-07T12:00:14;30.20;51.40
51815;DHT22;37874;53.158;6.766;2023-09-07T12:02:40;30.40;51.20
51815;DHT22;37874;53.158;6.766;2023-09-07T12:05:07;30.40;50.80
51815;DHT22;37874;53.158;6.766;2023-09-07T12:07:34;30.50;50.50
51815;DHT22;37874;53.158;6.766;2023-09-07T12:10:00;30.70;50.40
51815;DHT22;37874;53.158;6.766;2023-09-07T12:12:29;30.80;50.10
51815;DHT22;37874;53.158;6.766;2023-09-07T12:14:55;30.80;49.90
51815;DHT22;37874;53.158;6.766;2023-09-07T12:17:22;30.90;49.70
51815;DHT22;37874;53.158;6.766;2023-09-07T12:19:49;31.00;49.60
51815;DHT22;37874;53.158;6.766;2023-09-07T12:22:14;31.00;49.30
51815;DHT22;37874;53.158;6.766;2023-09-07T12:24:40;31.10;49.20
51815;DHT22;37874;53.158;6.766;2023-09-07T12:27:06;31.20;49.10
51815;DHT22;37874;53.158;6.766;2023-09-07T12:29:31;31.30;49.00
51815;DHT22;37874;53.158;6.766;2023-09-07T12:31:59;31.40;48.90
51815;DHT22;37874;53.158;6.766;2023-09-07T12:34:25;31.40;48.70
51815;DHT22;37874;53.158;6.766;2023-09-07T12:36:50;31.50;48.60
51815;DHT22;37874;53.158;6.766;2023-09-07T12:39:16;31.50;48.50
51815;DHT22;37874;53.158;6.766;2023-09-07T12:41:42;31.60;48.50
51815;DHT22;37874;53.158;6.766;2023-09-07T12:44:08;31.60;48.40
51815;DHT22;37874;53.158;6.766;2023-09-07T12:46:34;31.70;48.40
51815;DHT22;37874;53.158;6.766;2023-09-07T12:49:00;31.70;48.30
51815;DHT22;37874;53.158;6.766;2023-09-07T12:51:26;31.80;48.20
51815;DHT22;37874;53.158;6.766;2023-09-07T12:53:52;31.80;48.20
51815;DHT22;37874;53.158;6.766;2023-09-07T12:56:17;31.90;48.10
51815;DHT22;37874;53.158;6.766;2023-09-07T12:58:44;31.90;48.00
51815;DHT22;37874;53.158;6.766;2023-09-07T13:01:10;31.90;48.00
51815;DHT22;37874;53.158;6.766;2023-09-07T13:03:37;32.00;48.00
51815;DHT22;37874;53.158;6.766;2023-09-07T13:06:03;32.00;47.90
51815;DHT22;37874;53.158;6.766;2023-09-07T13:08:29;32.00;47.90
51815;DHT22;37874;53.158;6.766;2023-09-07T13:10:58;32.10;47.80
51815;DHT22;37874;53.158;6.766;2023-09-07T13:13:24;32.10;47.70
51815;DHT22;37874;53.158;6.766;2023-09-07T13:15:58;32.20;47.70
51815;DHT22;37874;53.158;6.766;2023-09-07T13:18:24;32.20;47.60
51815;DHT22;37874;53.158;6.766;2023-09-07T13:20:51;32.20;47.60
51815;DHT22;37874;53.158;6.766;2023-09-07T13:23:27;32.30;47.60
51815;DHT22;37874;53.158;6.766;2023-09-07T13:25:54;32.30;47.50
51815;DHT22;37874;53.158;6.766;2023-09-07T13:28:19;32.40;47.50
51815;DHT22;37874;53.158;6.766;2023-09-07T13:30:45;32.40;47.50
51815;DHT22;37874;53.158;6.766;2023-09-07T13:33:13;32.40;47.50
51815;DHT22;37874;53.158;6.766;2023-09-07T13:35:39;32.50;47.50
51815;DHT22;37874;53.158;6.766;2023-09-07T13:38:05;32.50;47.30
51815;DHT22;37874;53.158;6.766;2023-09-07T13:40:31;32.50;47.20
51815;DHT22;37874;53.158;6.766;2023-09-07T13:42:57;32.60;47.30
51815;DHT22;37874;53.158;6.766;2023-09-07T13:45:22;32.60;47.20
51815;DHT22;37874;53.158;6.766;2023-09-07T13:47:48;32.70;47.20
51815;DHT22;37874;53.158;6.766;2023-09-07T13:50:14;32.80;47.20
51815;DHT22;37874;53.158;6.766;2023-09-07T13:52:39;32.70;47.10
51815;DHT22;37874;53.158;6.766;2023-09-07T13:55:06;32.80;47.10
51815;DHT22;37874;53.158;6.766;2023-09-07T13:57:34;32.80;47.10
51815;DHT22;37874;53.158;6.766;2023-09-07T14:00:00;32.90;47.10
51815;DHT22;37874;53.158;6.766;2023-09-07T14:02:26;32.90;47.00
51815;DHT22;37874;53.158;6.766;2023-09-07T14:04:51;32.90;47.10
51815;DHT22;37874;53.158;6.766;2023-09-07T14:07:17;32.90;47.00
51815;DHT22;37874;53.158;6.766;2023-09-07T14:09:43;32.90;47.00
51815;DHT22;37874;53.158;6.766;2023-09-07T14:12:09;32.90;47.10
51815;DHT22;37874;53.158;6.766;2023-09-07T14:14:35;32.90;47.00
51815;DHT22;37874;53.158;6.766;2023-09-07T14:17:01;33.00;47.00
51815;DHT22;37874;53.158;6.766;2023-09-07T14:19:27;32.90;47.10
51815;DHT22;37874;53.158;6.766;2023-09-07T14:21:56;32.90;47.10
51815;DHT22;37874;53.158;6.766;2023-09-07T14:24:23;32.90;47.10
51815;DHT22;37874;53.158;6.766;2023-09-07T14:26:49;32.90;47.20
51815;DHT22;37874;53.158;6.766;2023-09-07T14:29:14;33.00;47.30
51815;DHT22;37874;53.158;6.766;2023-09-07T14:31:40;33.00;47.30
51815;DHT22;37874;53.158;6.766;2023-09-07T14:34:07;33.00;47.30
51815;DHT22;37874;53.158;6.766;2023-09-07T14:36:33;33.00;47.40
51815;DHT22;37874;53.158;6.766;2023-09-07T14:38:59;33.00;47.40
51815;DHT22;37874;53.158;6.766;2023-09-07T14:41:24;33.00;47.50
51815;DHT22;37874;53.158;6.766;2023-09-07T14:43:50;33.00;47.60
51815;DHT22;37874;53.158;6.766;2023-09-07T14:46:16;33.00;47.60
51815;DHT22;37874;53.158;6.766;2023-09-07T14:48:44;33.10;47.70
51815;DHT22;37874;53.158;6.766;2023-09-07T14:51:10;33.10;47.70
51815;DHT22;37874;53.158;6.766;2023-09-07T14:53:35;33.10;47.80
51815;DHT22;37874;53.158;6.766;2023-09-07T14:56:01;33.10;47.80
51815;DHT22;37874;53.158;6.766;2023-09-07T14:58:27;33.10;47.70
51815;DHT22;37874;53.158;6.766;2023-09-07T15:01:01;33.10;47.70
51815;DHT22;37874;53.158;6.766;2023-09-07T15:03:29;33.10;47.60
51815;DHT22;37874;53.158;6.766;2023-09-07T15:05:54;33.20;47.70
51815;DHT22;37874;53.158;6.766;2023-09-07T15:08:20;33.20;47.70
51815;DHT22;37874;53.158;6.766;2023-09-07T15:10:46;33.20;47.60
51815;DHT22;37874;53.158;6.766;2023-09-07T15:13:11;33.30;47.70
51815;DHT22;37874;53.158;6.766;2023-09-07T15:15:37;33.30;47.60
51815;DHT22;37874;53.158;6.766;2023-09-07T15:18:05;33.30;47.70
51815;DHT22;37874;53.158;6.766;2023-09-07T15:20:32;33.30;47.60
51815;DHT22;37874;53.158;6.766;2023-09-07T15:22:57;33.30;47.60
51815;DHT22;37874;53.158;6.766;2023-09-07T15:25:23;33.30;47.60
51815;DHT22;37874;53.158;6.766;2023-09-07T15:27:49;33.40;47.60
51815;DHT22;37874;53.158;6.766;2023-09-07T15:30:15;33.40;47.50
51815;DHT22;37874;53.158;6.766;2023-09-07T15:32:40;33.40;47.40
51815;DHT22;37874;53.158;6.766;2023-09-07T15:35:08;33.50;47.50
51815;DHT22;37874;53.158;6.766;2023-09-07T15:37:33;33.50;47.50
51815;DHT22;37874;53.158;6.766;2023-09-07T15:39:59;33.60;47.40
51815;DHT22;37874;53.158;6.766;2023-09-07T15:42:25;33.60;47.40
51815;DHT22;37874;53.158;6.766;2023-09-07T15:44:51;33.60;47.40
51815;DHT22;37874;53.158;6.766;2023-09-07T15:47:17;33.60;47.40
51815;DHT22;37874;53.158;6.766;2023-09-07T15:49:43;33.60;47.40
51815;DHT22;37874;53.158;6.766;2023-09-07T15:52:17;33.60;47.40
51815;DHT22;37874;53.158;6.766;2023-09-07T15:54:45;33.70;47.40
51815;DHT22;37874;53.158;6.766;2023-09-07T15:57:11;33.70;47.30
51815;DHT22;37874;53.158;6.766;2023-09-07T15:59:37;33.70;47.40
51815;DHT22;37874;53.158;6.766;2023-09-07T16:02:03;33.80;47.40
51815;DHT22;37874;53.158;6.766;2023-09-07T16:04:28;33.70;47.30
51815;DHT22;37874;53.158;6.766;2023-09-07T16:06:54;33.80;47.40
51815;DHT22;37874;53.158;6.766;2023-09-07T16:09:21;33.70;47.40
51815;DHT22;37874;53.158;6.766;2023-09-07T16:11:46;33.70;47.50
51815;DHT22;37874;53.158;6.766;2023-09-07T16:14:12;33.70;47.60
51815;DHT22;37874;53.158;6.766;2023-09-07T16:16:38;33.70;47.60
51815;DHT22;37874;53.158;6.766;2023-09-07T16:19:04;33.70;47.70
51815;DHT22;37874;53.158;6.766;2023-09-07T16:21:32;33.60;47.60
51815;DHT22;37874;53.158;6.766;2023-09-07T16:23:58;33.70;47.80
51815;DHT22;37874;53.158;6.766;2023-09-07T16:26:23;33.60;48.00
51815;DHT22;37874;53.158;6.766;2023-09-07T16:28:49;33.60;48.00
51815;DHT22;37874;53.158;6.766;2023-09-07T16:31:15;33.60;48.10
51815;DHT22;37874;53.158;6.766;2023-09-07T16:33:41;33.50;48.10
51815;DHT22;37874;53.158;6.766;2023-09-07T16:36:09;33.50;48.30
51815;DHT22;37874;53.158;6.766;2023-09-07T16:38:35;33.50;48.40
51815;DHT22;37874;53.158;6.766;2023-09-07T16:41:04;33.50;48.40
51815;DHT22;37874;53.158;6.766;2023-09-07T16:43:30;33.40;48.40
51815;DHT22;37874;53.158;6.766;2023-09-07T16:46:03;33.40;48.50
51815;DHT22;37874;53.158;6.766;2023-09-07T16:48:31;33.40;48.60
51815;DHT22;37874;53.158;6.766;2023-09-07T16:50:57;33.40;48.70
51815;DHT22;37874;53.158;6.766;2023-09-07T16:53:23;33.30;48.60
51815;DHT22;37874;53.158;6.766;2023-09-07T16:55:49;33.30;48.80
51815;DHT22;37874;53.158;6.766;2023-09-07T16:58:23;33.20;48.80
51815;DHT22;37874;53.158;6.766;2023-09-07T17:00:49;33.30;49.00
51815;DHT22;37874;53.158;6.766;2023-09-07T17:03:18;33.30;49.00
51815;DHT22;37874;53.158;6.766;2023-09-07T17:05:52;33.20;49.10
51815;DHT22;37874;53.158;6.766;2023-09-07T17:08:18;33.20;49.20
51815;DHT22;37874;53.158;6.766;2023-09-07T17:10:45;33.10;49.20
51815;DHT22;37874;53.158;6.766;2023-09-07T17:13:11;33.10;49.40
51815;DHT22;37874;53.158;6.766;2023-09-07T17:15:37;33.10;49.50
51815;DHT22;37874;53.158;6.766;2023-09-07T17:18:02;33.00;49.50
51815;DHT22;37874;53.158;6.766;2023-09-07T17:20:28;32.90;49.70
51815;DHT22;37874;53.158;6.766;2023-09-07T17:22:56;32.90;49.90
51815;DHT22;37874;53.158;6.766;2023-09-07T17:25:22;32.80;49.90
51815;DHT22;37874;53.158;6.766;2023-09-07T17:27:48;32.70;50.10
51815;DHT22;37874;53.158;6.766;2023-09-07T17:30:13;32.60;50.30
51815;DHT22;37874;53.158;6.766;2023-09-07T17:32:40;32.60;50.50
51815;DHT22;37874;53.158;6.766;2023-09-07T17:35:06;32.50;50.60
51815;DHT22;37874;53.158;6.766;2023-09-07T17:37:32;32.40;50.70
51815;DHT22;37874;53.158;6.766;2023-09-07T17:39:58;32.40;50.80
51815;DHT22;37874;53.158;6.766;2023-09-07T17:42:24;32.40;51.00
51815;DHT22;37874;53.158;6.766;2023-09-07T17:44:50;32.30;51.10
51815;DHT22;37874;53.158;6.766;2023-09-07T17:47:17;32.20;51.30
51815;DHT22;37874;53.158;6.766;2023-09-07T17:49:42;32.10;51.20
51815;DHT22;37874;53.158;6.766;2023-09-07T17:52:08;32.10;51.40
51815;DHT22;37874;53.158;6.766;2023-09-07T17:54:34;32.10;51.50
51815;DHT22;37874;53.158;6.766;2023-09-07T17:57:02;32.00;51.70
51815;DHT22;37874;53.158;6.766;2023-09-07T17:59:28;32.00;51.70
51815;DHT22;37874;53.158;6.766;2023-09-07T18:01:54;32.00;51.80
51815;DHT22;37874;53.158;6.766;2023-09-07T18:04:20;31.90;51.90
51815;DHT22;37874;53.158;6.766;2023-09-07T18:06:46;31.80;52.00
51815;DHT22;37874;53.158;6.766;2023-09-07T18:09:12;31.80;52.20
51815;DHT22;37874;53.158;6.766;2023-09-07T18:11:38;31.70;52.20
51815;DHT22;37874;53.158;6.766;2023-09-07T18:14:09;31.70;52.40
51815;DHT22;37874;53.158;6.766;2023-09-07T18:16:35;31.70;52.50
51815;DHT22;37874;53.158;6.766;2023-09-07T18:19:01;31.60;52.50
51815;DHT22;37874;53.158;6.766;2023-09-07T18:21:26;31.60;52.60
51815;DHT22;37874;53.158;6.766;2023-09-07T18:23:52;31.50;52.60
51815;DHT22;37874;53.158;6.766;2023-09-07T18:26:18;31.50;52.70
51815;DHT22;37874;53.158;6.766;2023-09-07T18:28:44;31.50;52.70
51815;DHT22;37874;53.158;6.766;2023-09-07T18:31:10;31.50;52.80
51815;DHT22;37874;53.158;6.766;2023-09-07T18:33:36;31.40;52.80
51815;DHT22;37874;53.158;6.766;2023-09-07T18:36:06;31.40;52.90
51815;DHT22;37874;53.158;6.766;2023-09-07T18:38:33;31.30;53.00
51815;DHT22;37874;53.158;6.766;2023-09-07T18:41:02;31.30;53.00
51815;DHT22;37874;53.158;6.766;2023-09-07T18:43:28;31.30;53.20
51815;DHT22;37874;53.158;6.766;2023-09-07T18:45:55;31.30;53.30
51815;DHT22;37874;53.158;6.766;2023-09-07T18:48:21;31.20;53.30
51815;DHT22;37874;53.158;6.766;2023-09-07T18:50:46;31.20;53.40
51815;DHT22;37874;53.158;6.766;2023-09-07T18:53:13;31.20;53.50
51815;DHT22;37874;53.158;6.766;2023-09-07T18:55:42;31.20;53.50
51815;DHT22;37874;53.158;6.766;2023-09-07T18:58:07;31.10;53.50
51815;DHT22;37874;53.158;6.766;2023-09-07T19:00:34;31.10;53.60
51815;DHT22;37874;53.158;6.766;2023-09-07T19:03:01;31.10;53.60
51815;DHT22;37874;53.158;6.766;2023-09-07T19:05:28;31.00;53.70
51815;DHT22;37874;53.158;6.766;2023-09-07T19:07:53;31.00;53.70
51815;DHT22;37874;53.158;6.766;2023-09-07T19:10:19;31.10;53.80
51815;DHT22;37874;53.158;6.766;2023-09-07T19:12:45;31.00;53.80
51815;DHT22;37874;53.158;6.766;2023-09-07T19:15:11;31.00;53.80
51815;DHT22;37874;53.158;6.766;2023-09-07T19:17:39;31.00;53.90
51815;DHT22;37874;53.158;6.766;2023-09-07T19:20:05;31.00;53.90
51815;DHT22;37874;53.158;6.766;2023-09-07T19:22:31;30.90;53.90
51815;DHT22;37874;53.158;6.766;2023-09-07T19:24:57;30.90;53.90
51815;DHT22;37874;53.158;6.766;2023-09-07T19:27:22;30.90;54.00
51815;DHT22;37874;53.158;6.766;2023-09-07T19:29:48;30.90;54.10